createdAt,value
2018-08-07T00:02:14.760Z,2.43
2018-08-07T00:04:43.071Z,2.70
2018-08-07T00:07:11.272Z,3.30
2018-08-07T00:09:40.169Z,3.10
2018-08-07T00:12:08.434Z,4.07
2018-08-07T00:14:36.747Z,3.60
2018-08-07T00:17:05.090Z,3.73
2018-08-07T00:19:33.303Z,3.63
2018-08-07T00:22:01.563Z,3.00
2018-08-07T00:24:29.790Z,3.70
2018-08-07T00:26:57.990Z,3.43
2018-08-07T00:29:26.465Z,3.50
2018-08-07T00:31:54.732Z,3.50
2018-08-07T00:34:22.961Z,3.70
2018-08-07T00:36:51.172Z,3.33
2018-08-07T00:39:19.401Z,5.03
2018-08-07T00:41:47.609Z,3.73
2018-08-07T00:44:15.826Z,3.20
2018-08-07T00:46:44.044Z,3.50
2018-08-07T00:49:12.259Z,2.70
2018-08-07T00:51:40.479Z,4.30
2018-08-07T00:54:08.725Z,3.00
2018-08-07T00:56:37.023Z,3.50
2018-08-07T00:59:05.662Z,3.07
2018-08-07T01:01:33.922Z,3.83
2018-08-07T01:04:02.311Z,3.73
2018-08-07T01:06:30.536Z,3.57
2018-08-07T01:08:58.763Z,4.57
2018-08-07T01:11:26.955Z,4.13
2018-08-07T01:13:55.137Z,3.80
2018-08-07T01:16:23.339Z,3.63
2018-08-07T01:18:52.163Z,3.80
2018-08-07T01:21:20.395Z,3.60
2018-08-07T01:23:48.611Z,3.40
2018-08-07T01:26:16.831Z,3.67
2018-08-07T01:28:45.092Z,4.20
2018-08-07T01:31:13.280Z,3.70
2018-08-07T01:33:41.652Z,3.10
2018-08-07T01:36:09.927Z,3.30
2018-08-07T01:38:38.170Z,2.73
2018-08-07T01:41:06.551Z,3.30
2018-08-07T01:43:34.794Z,3.27
2018-08-07T01:46:03.107Z,3.70
2018-08-07T01:48:31.354Z,4.17
2018-08-07T01:50:59.601Z,3.80
2018-08-07T01:53:27.823Z,3.63
2018-08-07T01:55:55.990Z,3.63
2018-08-07T01:58:24.211Z,3.53
2018-08-07T02:00:52.430Z,3.93
2018-08-07T02:03:20.752Z,2.83
2018-08-07T02:05:48.971Z,2.70
2018-08-07T02:08:17.211Z,3.40
2018-08-07T02:10:45.430Z,3.43
2018-08-07T02:13:13.627Z,3.10
2018-08-07T02:15:41.955Z,2.97
2018-08-07T02:18:10.163Z,3.40
2018-08-07T02:20:38.358Z,3.63
2018-08-07T02:23:06.616Z,4.13
2018-08-07T02:25:34.858Z,4.20
2018-08-07T02:28:03.074Z,4.40
2018-08-07T02:30:31.320Z,3.43
2018-08-07T02:32:59.491Z,4.20
2018-08-07T02:35:27.714Z,3.83
2018-08-07T02:37:55.943Z,3.70
2018-08-07T02:40:24.174Z,4.10
2018-08-07T02:42:52.438Z,4.30
2018-08-07T02:45:20.719Z,3.60
2018-08-07T02:47:49.217Z,4.03
2018-08-07T02:50:19.206Z,3.73
2018-08-07T02:52:47.455Z,4.67
2018-08-07T02:55:15.823Z,4.20
2018-08-07T02:57:44.612Z,4.33
2018-08-07T03:00:16.046Z,4.27
2018-08-07T03:02:44.615Z,4.10
2018-08-07T03:05:12.845Z,3.80
2018-08-07T03:07:41.045Z,4.30
2018-08-07T03:10:10.080Z,4.43
2018-08-07T03:12:38.522Z,4.13
2018-08-07T03:15:08.662Z,3.77
2018-08-07T03:17:36.975Z,4.60
2018-08-07T03:20:04.945Z,5.33
2018-08-07T03:22:33.195Z,4.90
2018-08-07T03:25:01.498Z,5.63
2018-08-07T03:27:29.703Z,5.33
2018-08-07T03:29:57.950Z,6.37
2018-08-07T03:32:26.179Z,5.50
2018-08-07T03:34:54.369Z,5.23
2018-08-07T03:37:22.614Z,5.73
2018-08-07T03:39:50.883Z,5.73
2018-08-07T03:42:19.169Z,5.50
2018-08-07T03:44:47.198Z,6.13
2018-08-07T03:47:15.409Z,6.00
2018-08-07T03:49:43.676Z,6.20
2018-08-07T03:52:11.898Z,5.87
2018-08-07T03:54:40.223Z,6.10
2018-08-07T03:57:08.479Z,6.80
2018-08-07T03:59:36.729Z,5.63
2018-08-07T04:02:04.998Z,6.03
2018-08-07T04:04:33.260Z,6.37
2018-08-07T04:07:01.630Z,5.80
2018-08-07T04:09:29.881Z,6.47
2018-08-07T04:11:58.128Z,6.40
2018-08-07T04:14:26.367Z,6.40
2018-08-07T04:16:55.595Z,6.60
2018-08-07T04:19:25.632Z,6.60
2018-08-07T04:21:54.729Z,6.17
2018-08-07T04:24:23.151Z,7.33
2018-08-07T04:26:51.450Z,6.10
2018-08-07T04:29:19.725Z,6.57
2018-08-07T04:31:47.947Z,6.30
2018-08-07T04:34:16.234Z,6.07
2018-08-07T04:36:44.451Z,6.03
2018-08-07T04:39:13.578Z,6.57
2018-08-07T04:41:42.343Z,6.30
2018-08-07T04:44:10.770Z,5.70
2018-08-07T04:46:39.005Z,6.70
2018-08-07T04:49:07.364Z,6.50
2018-08-07T04:51:36.199Z,6.40
2018-08-07T04:54:04.750Z,8.37
2018-08-07T04:56:33.034Z,7.43
2018-08-07T04:59:01.446Z,7.33
2018-08-07T05:01:29.717Z,7.60
2018-08-07T05:03:57.998Z,8.87
2018-08-07T05:06:26.244Z,8.80
2018-08-07T05:08:54.514Z,8.80
2018-08-07T05:11:22.751Z,8.53
2018-08-07T05:13:51.276Z,8.97
2018-08-07T05:16:19.526Z,8.73
2018-08-07T05:18:47.907Z,8.83
2018-08-07T05:21:16.159Z,9.10
2018-08-07T05:23:44.558Z,8.73
2018-08-07T05:26:12.814Z,9.40
2018-08-07T05:28:41.150Z,10.63
2018-08-07T05:31:09.442Z,9.40
2018-08-07T05:33:37.688Z,9.53
2018-08-07T05:36:05.965Z,9.57
2018-08-07T05:38:34.215Z,10.40
2018-08-07T05:41:02.435Z,11.20
2018-08-07T05:43:30.690Z,8.63
2018-08-07T05:45:58.956Z,9.33
2018-08-07T05:48:27.199Z,9.23
2018-08-07T05:50:55.739Z,9.80
2018-08-07T05:53:23.910Z,9.43
2018-08-07T05:55:52.141Z,9.47
2018-08-07T05:58:20.363Z,9.53
2018-08-07T06:00:48.626Z,9.63
2018-08-07T06:03:16.868Z,10.30
2018-08-07T06:05:45.133Z,9.73
2018-08-07T06:08:13.408Z,7.07
2018-08-07T06:10:41.739Z,7.87
2018-08-07T06:13:09.928Z,8.10
2018-08-07T06:15:38.171Z,8.13
2018-08-07T06:18:06.547Z,7.90
2018-08-07T06:20:34.498Z,8.07
2018-08-07T06:23:02.776Z,7.97
2018-08-07T06:25:31.140Z,7.50
2018-08-07T06:27:59.395Z,7.23
2018-08-07T06:30:27.623Z,7.67
2018-08-07T06:32:55.847Z,7.40
2018-08-07T06:35:24.201Z,6.83
2018-08-07T06:40:27.255Z,7.17
2018-08-07T06:42:55.537Z,7.30
2018-08-07T06:45:23.927Z,8.03
2018-08-07T06:47:52.224Z,8.17
2018-08-07T06:50:21.025Z,7.70
2018-08-07T06:52:49.963Z,8.73
2018-08-07T06:55:18.232Z,8.50
2018-08-07T06:57:46.515Z,8.80
2018-08-07T07:00:16.715Z,8.70
2018-08-07T07:02:45.118Z,9.60
2018-08-07T07:05:13.387Z,9.93
2018-08-07T07:07:41.705Z,9.83
2018-08-07T07:10:11.259Z,9.70
2018-08-07T07:12:40.062Z,9.63
2018-08-07T07:15:09.370Z,9.60
2018-08-07T07:17:37.650Z,10.07
2018-08-07T07:20:08.419Z,12.23
2018-08-07T07:22:36.738Z,9.63
2018-08-07T07:25:05.547Z,10.33
2018-08-07T07:27:34.126Z,10.80
2018-08-07T07:30:02.403Z,11.20
2018-08-07T07:32:30.646Z,11.10
2018-08-07T07:34:58.935Z,11.30
2018-08-07T07:37:27.155Z,11.77
2018-08-07T07:39:55.362Z,10.80
2018-08-07T07:42:23.402Z,10.33
2018-08-07T07:44:51.766Z,10.60
2018-08-07T07:47:20.023Z,10.97
2018-08-07T07:49:48.322Z,7.97
2018-08-07T07:52:16.571Z,9.00
2018-08-07T07:54:44.867Z,11.43
2018-08-07T07:57:12.843Z,9.67
2018-08-07T07:59:41.122Z,11.20
2018-08-07T08:02:09.334Z,12.20
2018-08-07T08:04:37.685Z,12.40
2018-08-07T08:07:05.994Z,10.80
2018-08-07T08:09:34.269Z,10.60
2018-08-07T08:12:02.546Z,10.23
2018-08-07T08:14:30.786Z,11.07
2018-08-07T08:16:59.082Z,11.10
2018-08-07T08:19:27.344Z,12.17
2018-08-07T08:21:57.862Z,12.20
2018-08-07T08:24:29.441Z,13.23
2018-08-07T08:27:00.437Z,11.10
2018-08-07T08:29:30.127Z,11.60
2018-08-07T08:32:06.532Z,12.80
2018-08-07T08:34:41.604Z,12.17
2018-08-07T08:37:16.370Z,13.17
2018-08-07T08:39:53.782Z,11.73
2018-08-07T08:42:24.631Z,11.27
2018-08-07T08:44:56.186Z,10.70
2018-08-07T08:47:26.668Z,10.80
2018-08-07T08:49:56.962Z,10.00
2018-08-07T08:52:29.779Z,11.60
2018-08-07T08:55:01.740Z,9.73
2018-08-07T08:57:30.175Z,9.73
2018-08-07T08:59:58.403Z,8.27
2018-08-07T09:02:26.620Z,9.83
2018-08-07T09:04:54.900Z,8.67
2018-08-07T09:07:23.117Z,7.97
2018-08-07T09:09:51.107Z,6.57
2018-08-07T09:12:19.322Z,6.77
2018-08-07T09:14:47.458Z,6.20
2018-08-07T09:17:15.862Z,6.60
2018-08-07T09:19:44.172Z,5.40
2018-08-07T09:22:12.390Z,5.20
2018-08-07T09:24:40.796Z,5.40
2018-08-07T09:27:08.997Z,5.87
2018-08-07T09:29:37.242Z,5.20
2018-08-07T09:32:05.794Z,4.97
2018-08-07T09:34:34.055Z,4.90
2018-08-07T09:37:02.286Z,5.50
2018-08-07T09:39:30.295Z,5.63
2018-08-07T09:41:58.535Z,5.87
2018-08-07T09:44:26.815Z,5.90
2018-08-07T09:46:55.082Z,6.07
2018-08-07T09:49:23.323Z,5.90
2018-08-07T09:51:51.562Z,5.10
2018-08-07T09:54:19.874Z,4.80
2018-08-07T09:56:48.116Z,5.23
2018-08-07T09:59:16.428Z,5.13
2018-08-07T10:01:50.159Z,4.80
2018-08-07T10:04:18.380Z,5.40
2018-08-07T10:06:46.602Z,4.50
2018-08-07T10:09:14.865Z,4.20
2018-08-07T10:11:43.086Z,3.97
2018-08-07T10:14:11.507Z,5.63
2018-08-07T10:16:39.763Z,5.37
2018-08-07T10:19:08.022Z,4.60
2018-08-07T10:21:36.288Z,5.10
2018-08-07T10:24:04.530Z,3.53
2018-08-07T10:26:32.764Z,4.90
2018-08-07T10:29:01.013Z,4.70
2018-08-07T10:31:29.270Z,3.80
2018-08-07T10:33:57.270Z,3.90
2018-08-07T10:36:25.563Z,3.63
2018-08-07T10:38:54.247Z,4.10
2018-08-07T10:41:22.537Z,3.87
2018-08-07T10:43:50.928Z,4.30
2018-08-07T10:46:19.077Z,3.13
2018-08-07T10:48:47.366Z,3.67
2018-08-07T10:51:15.610Z,3.60
2018-08-07T10:53:43.915Z,3.13
2018-08-07T10:56:12.179Z,3.80
2018-08-07T10:58:40.451Z,3.60
2018-08-07T11:01:09.352Z,3.57
2018-08-07T11:03:37.579Z,3.77
2018-08-07T11:06:05.864Z,3.57
2018-08-07T11:08:34.077Z,3.87
2018-08-07T11:11:02.052Z,3.60
2018-08-07T11:13:30.386Z,3.77
2018-08-07T11:15:58.638Z,3.53
2018-08-07T11:18:26.878Z,3.60
2018-08-07T11:20:55.115Z,3.30
2018-08-07T11:23:23.342Z,3.20
2018-08-07T11:25:51.314Z,3.90
2018-08-07T11:28:19.600Z,3.90
2018-08-07T11:30:47.895Z,3.73
2018-08-07T11:33:16.144Z,3.80
2018-08-07T11:35:44.505Z,3.50
2018-08-07T11:38:12.784Z,3.17
2018-08-07T11:40:41.052Z,3.93
2018-08-07T11:43:09.307Z,3.33
2018-08-07T11:45:37.540Z,3.87
2018-08-07T11:48:05.907Z,3.23
2018-08-07T11:50:33.869Z,3.33
2018-08-07T11:53:02.131Z,3.00
2018-08-07T11:55:30.351Z,3.33
2018-08-07T11:57:58.597Z,3.50
2018-08-07T12:00:30.502Z,3.30
2018-08-07T12:02:59.189Z,3.27
2018-08-07T12:05:27.674Z,3.50
2018-08-07T12:07:56.019Z,3.00
2018-08-07T12:10:24.209Z,2.97
2018-08-07T12:12:52.495Z,3.57
2018-08-07T12:15:22.194Z,2.93
2018-08-07T12:17:50.471Z,2.73
2018-08-07T12:20:18.717Z,3.00
2018-08-07T12:22:46.978Z,3.20
2018-08-07T12:25:16.107Z,2.80
2018-08-07T12:27:44.427Z,2.67
2018-08-07T12:30:16.889Z,3.00
2018-08-07T12:32:45.480Z,2.70
2018-08-07T12:35:14.033Z,2.80
2018-08-07T12:37:42.226Z,2.90
2018-08-07T12:40:19.916Z,3.03
2018-08-07T12:42:48.511Z,3.40
2018-08-07T12:45:16.724Z,2.77
2018-08-07T12:47:45.486Z,2.90
2018-08-07T12:50:14.764Z,2.43
2018-08-07T12:52:43.074Z,3.40
2018-08-07T12:55:13.091Z,2.80
2018-08-07T12:57:41.348Z,2.87
2018-08-07T13:00:12.206Z,3.40
2018-08-07T13:02:40.469Z,3.23
2018-08-07T13:05:08.791Z,3.13
2018-08-07T13:07:37.054Z,3.00
2018-08-07T13:10:08.447Z,3.33
2018-08-07T13:12:36.720Z,3.53
2018-08-07T13:15:06.246Z,2.80
2018-08-07T13:17:34.472Z,3.00
2018-08-07T13:20:03.049Z,3.10
2018-08-07T13:22:31.062Z,2.63
2018-08-07T13:24:59.354Z,2.50
2018-08-07T13:27:28.503Z,2.90
2018-08-07T13:29:56.795Z,2.87
2018-08-07T13:32:25.051Z,3.00
2018-08-07T13:34:53.476Z,2.40
2018-08-07T13:37:21.871Z,2.97
2018-08-07T13:39:50.100Z,3.00
2018-08-07T13:42:18.408Z,2.70
2018-08-07T13:44:46.638Z,3.37
2018-08-07T13:47:14.930Z,2.90
2018-08-07T13:49:43.229Z,3.40
2018-08-07T13:52:11.700Z,3.03
2018-08-07T13:54:39.968Z,2.43
2018-08-07T13:57:08.236Z,2.57
2018-08-07T13:59:36.528Z,2.50
2018-08-07T14:02:04.775Z,2.90
2018-08-07T14:04:33.158Z,2.63
2018-08-07T14:07:01.430Z,2.10
2018-08-07T14:09:29.669Z,2.47
2018-08-07T14:11:57.656Z,2.10
2018-08-07T14:14:25.878Z,1.90
2018-08-07T14:16:54.143Z,1.50
2018-08-07T14:19:22.418Z,2.20
2018-08-07T14:21:50.660Z,2.30
2018-08-07T14:24:18.958Z,2.10
2018-08-07T14:26:47.239Z,1.80
2018-08-07T14:29:15.784Z,2.07
2018-08-07T14:31:44.362Z,2.00
2018-08-07T14:34:12.775Z,1.70
2018-08-07T14:36:41.051Z,1.37
2018-08-07T14:39:10.385Z,1.70
2018-08-07T14:41:38.367Z,1.30
2018-08-07T14:44:06.911Z,1.50
2018-08-07T14:46:35.272Z,1.55
2018-08-07T14:49:03.503Z,1.45
2018-08-07T14:51:31.856Z,1.62
2018-08-07T14:54:00.192Z,1.32
2018-08-07T14:56:28.594Z,1.42
2018-08-07T14:58:56.833Z,1.80
2018-08-07T15:01:25.074Z,1.75
2018-08-07T15:03:55.080Z,1.50
2018-08-07T15:06:23.404Z,1.60
2018-08-07T15:08:51.678Z,1.50
2018-08-07T15:11:19.969Z,1.45
2018-08-07T15:13:48.222Z,1.35
2018-08-07T15:16:16.474Z,1.70
2018-08-07T15:18:44.772Z,1.50
2018-08-07T15:21:13.051Z,1.57
2018-08-07T15:23:41.975Z,1.67
2018-08-07T15:26:10.314Z,1.70
2018-08-07T15:28:38.566Z,1.50
2018-08-07T15:31:06.828Z,1.35
2018-08-07T15:33:35.283Z,1.37
2018-08-07T15:36:03.631Z,1.70
2018-08-07T15:38:31.905Z,1.70
2018-08-07T15:41:00.132Z,1.90
2018-08-07T15:43:28.412Z,1.98
2018-08-07T15:45:56.707Z,1.77
2018-08-07T15:48:24.985Z,1.30
2018-08-07T15:50:53.278Z,1.42
2018-08-07T15:53:21.567Z,1.52
2018-08-07T15:55:49.787Z,1.42
2018-08-07T15:58:18.049Z,1.70
2018-08-07T16:00:46.299Z,1.73
2018-08-07T16:03:14.615Z,2.17
2018-08-07T16:05:42.852Z,2.47
2018-08-07T16:08:11.083Z,2.33
2018-08-07T16:10:39.359Z,2.20
2018-08-07T16:13:07.683Z,2.33
2018-08-07T16:15:35.939Z,2.70
2018-08-07T16:18:04.358Z,2.63
2018-08-07T16:20:33.626Z,2.60
2018-08-07T16:23:01.900Z,2.70
2018-08-07T16:25:30.619Z,2.13
2018-08-07T16:27:58.884Z,3.10
2018-08-07T16:30:27.439Z,2.43
2018-08-07T16:32:55.697Z,2.70
2018-08-07T16:35:24.048Z,2.60
2018-08-07T16:37:52.314Z,2.80
2018-08-07T16:40:22.409Z,3.00
2018-08-07T16:42:51.716Z,2.60
2018-08-07T16:45:20.866Z,2.67
2018-08-07T16:47:49.229Z,2.70
2018-08-07T16:50:23.720Z,2.50
2018-08-07T16:52:53.009Z,2.53
2018-08-07T16:55:22.528Z,2.67
2018-08-07T16:57:50.755Z,2.30
2018-08-07T17:00:19.083Z,3.37
2018-08-07T17:02:47.387Z,2.60
2018-08-07T17:05:16.732Z,3.07
2018-08-07T17:07:45.454Z,2.33
2018-08-07T17:10:19.034Z,2.50
2018-08-07T17:12:47.510Z,2.70
2018-08-07T17:15:15.759Z,2.80
2018-08-07T17:17:44.680Z,2.60
2018-08-07T17:20:17.983Z,2.90
2018-08-07T17:22:46.562Z,2.70
2018-08-07T17:25:16.190Z,2.53
2018-08-07T17:27:45.356Z,2.83
2018-08-07T17:30:18.391Z,2.60
2018-08-07T17:32:46.530Z,2.77
2018-08-07T17:35:18.085Z,2.60
2018-08-07T17:37:46.903Z,2.93
2018-08-07T17:40:16.462Z,3.13
2018-08-07T17:42:44.764Z,2.30
2018-08-07T17:45:13.259Z,2.93
2018-08-07T17:47:41.519Z,2.60
2018-08-07T17:50:13.211Z,2.70
2018-08-07T17:52:41.992Z,2.67
2018-08-07T17:55:10.978Z,3.17
2018-08-07T17:57:39.827Z,2.60
2018-08-07T18:00:12.160Z,3.10
2018-08-07T18:02:41.734Z,3.50
2018-08-07T18:05:11.094Z,2.60
2018-08-07T18:07:40.439Z,3.20
2018-08-07T18:10:11.191Z,3.10
2018-08-07T18:12:39.891Z,3.17
2018-08-07T18:15:11.245Z,3.90
2018-08-07T18:17:40.363Z,3.63
2018-08-07T18:20:09.834Z,3.27
2018-08-07T18:22:44.526Z,3.47
2018-08-07T18:25:12.897Z,3.10
2018-08-07T18:27:41.168Z,2.90
2018-08-07T18:30:14.838Z,3.67
2018-08-07T18:32:43.503Z,3.30
2018-08-07T18:35:14.506Z,3.03
2018-08-07T18:37:42.818Z,2.70
2018-08-07T18:40:11.244Z,3.13
2018-08-07T18:42:39.471Z,3.40
2018-08-07T18:45:09.799Z,3.17
2018-08-07T18:47:38.615Z,4.63
2018-08-07T18:50:07.835Z,3.50
2018-08-07T18:52:36.135Z,4.07
2018-08-07T18:55:05.402Z,3.80
2018-08-07T18:57:33.734Z,2.90
2018-08-07T19:00:02.039Z,3.60
2018-08-07T19:02:30.291Z,3.33
2018-08-07T19:05:00.041Z,3.93
2018-08-07T19:07:28.360Z,4.00
2018-08-07T19:09:56.575Z,2.73
2018-08-07T19:12:25.886Z,3.80
2018-08-07T19:14:54.179Z,4.07
2018-08-07T19:17:22.827Z,3.57
2018-08-07T19:19:51.172Z,3.97
2018-08-07T19:22:19.626Z,3.83
2018-08-07T19:24:48.984Z,3.93
2018-08-07T19:27:17.214Z,3.83
2018-08-07T19:29:45.461Z,3.27
2018-08-07T19:32:14.058Z,3.67
2018-08-07T19:34:42.527Z,3.53
2018-08-07T19:37:10.883Z,3.17
2018-08-07T19:39:39.451Z,3.30
2018-08-07T19:42:07.824Z,3.30
2018-08-07T19:44:36.044Z,3.33
2018-08-07T19:47:04.264Z,3.67
2018-08-07T19:49:32.510Z,3.50
2018-08-07T19:52:01.058Z,3.37
2018-08-07T19:54:29.770Z,3.53
2018-08-07T19:56:58.634Z,3.90
2018-08-07T19:59:27.000Z,3.90
2018-08-07T20:01:56.142Z,4.20
2018-08-07T20:04:24.782Z,3.60
2018-08-07T20:06:53.434Z,3.30
2018-08-07T20:09:21.834Z,3.80
2018-08-07T20:11:50.366Z,4.13
2018-08-07T20:14:18.837Z,3.60
2018-08-07T20:16:47.226Z,3.60
2018-08-07T20:19:16.042Z,3.27
2018-08-07T20:21:44.492Z,4.00
2018-08-07T20:24:13.965Z,3.00
2018-08-07T20:26:42.602Z,3.70
2018-08-07T20:29:12.691Z,3.10
2018-08-07T20:31:42.363Z,3.70
2018-08-07T20:34:11.622Z,3.73
2018-08-07T20:36:40.981Z,4.17
2018-08-07T20:39:11.557Z,3.67
2018-08-07T20:41:40.177Z,3.80
2018-08-07T20:44:08.685Z,4.10
2018-08-07T20:46:37.190Z,3.40
2018-08-07T20:49:05.520Z,3.57
2018-08-07T20:51:33.816Z,4.10
2018-08-07T20:54:02.336Z,3.93
2018-08-07T20:56:30.564Z,4.10
2018-08-07T20:58:58.832Z,3.73
2018-08-07T21:01:27.109Z,3.10
2018-08-07T21:03:55.303Z,4.30
2018-08-07T21:06:23.629Z,4.60
2018-08-07T21:08:51.866Z,4.47
2018-08-07T21:11:20.286Z,4.07
2018-08-07T21:13:48.582Z,3.80
2018-08-07T21:16:16.631Z,4.40
2018-08-07T21:18:44.887Z,3.73
2018-08-07T21:21:13.081Z,4.43
2018-08-07T21:23:41.442Z,3.87
2018-08-07T21:26:10.070Z,3.60
2018-08-07T21:28:38.549Z,4.20
2018-08-07T21:31:06.758Z,3.83
2018-08-07T21:33:35.024Z,3.97
2018-08-07T21:36:03.293Z,3.63
2018-08-07T21:38:31.563Z,3.57
2018-08-07T21:40:59.799Z,4.60
2018-08-07T21:43:28.039Z,4.37
2018-08-07T21:45:56.363Z,4.00
2018-08-07T21:48:24.611Z,3.70
2018-08-07T21:50:52.847Z,3.67
2018-08-07T21:53:21.119Z,4.33
2018-08-07T21:55:49.402Z,4.03
2018-08-07T21:58:17.619Z,3.93
2018-08-07T22:00:47.188Z,3.87
2018-08-07T22:03:15.454Z,4.33
2018-08-07T22:05:44.238Z,3.90
2018-08-07T22:08:13.804Z,3.83
2018-08-07T22:10:42.279Z,4.20
2018-08-07T22:13:10.451Z,4.30
2018-08-07T22:15:38.831Z,3.70
2018-08-07T22:18:08.488Z,4.00
2018-08-07T22:20:36.695Z,4.10
2018-08-07T22:23:04.984Z,3.97
2018-08-07T22:25:33.251Z,3.80
2018-08-07T22:28:01.488Z,3.80
2018-08-07T22:30:29.853Z,4.53
2018-08-07T22:32:58.091Z,4.00
2018-08-07T22:35:26.355Z,4.77
2018-08-07T22:37:54.606Z,4.47
2018-08-07T22:40:22.826Z,4.27
2018-08-07T22:42:51.062Z,4.50
2018-08-07T22:45:19.634Z,3.90
2018-08-07T22:47:47.904Z,3.57
2018-08-07T22:50:17.502Z,4.10
2018-08-07T22:52:45.810Z,3.90
2018-08-07T22:55:15.694Z,3.60
2018-08-07T22:57:43.945Z,4.20
2018-08-07T23:00:13.546Z,3.90
2018-08-07T23:02:42.468Z,4.00
2018-08-07T23:05:11.484Z,4.60
2018-08-07T23:07:39.713Z,4.00
2018-08-07T23:10:10.922Z,4.60
2018-08-07T23:12:39.316Z,3.80
2018-08-07T23:15:10.286Z,3.80
2018-08-07T23:17:38.578Z,4.13
2018-08-07T23:20:07.675Z,4.20
2018-08-07T23:22:35.912Z,4.57
2018-08-07T23:25:04.976Z,4.13
2018-08-07T23:27:33.265Z,4.87
2018-08-07T23:30:01.537Z,4.10
2018-08-07T23:32:29.747Z,3.80
2018-08-07T23:34:57.986Z,4.77
2018-08-07T23:37:26.410Z,4.47
2018-08-07T23:39:54.635Z,3.80
2018-08-07T23:42:22.874Z,3.90
2018-08-07T23:44:51.217Z,4.17
2018-08-07T23:47:19.522Z,4.43
2018-08-07T23:49:47.760Z,4.40
2018-08-07T23:52:16.102Z,3.57
2018-08-07T23:54:44.561Z,4.87
2018-08-07T23:57:12.847Z,4.73
2018-08-07T23:59:41.167Z,5.43
